TimeMDT,TemperatureF,Dew PointF,Humidity,Sea Level PressureIn,VisibilityMPH,Wind Direction,Wind SpeedMPH,Gust SpeedMPH,PrecipitationIn,Events,Conditions,WindDirDegrees,DateUTC
12:53 AM,75.9,48.9,38,29.96,10.0,South,12.7,-,N/A,,Clear,180,2013-09-06 06:53:00
1:53 AM,73.9,48.0,40,29.95,10.0,South,10.4,-,N/A,,Clear,180,2013-09-06 07:53:00
2:53 AM,73.0,46.9,39,29.94,10.0,South,8.1,-,N/A,,Clear,190,2013-09-06 08:53:00
3:53 AM,71.1,46.0,41,29.93,10.0,South,4.6,-,N/A,,Clear,180,2013-09-06 09:53:00
4:53 AM,66.0,48.9,54,29.94,10.0,West,4.6,-,N/A,,Clear,270,2013-09-06 10:53:00
5:53 AM,60.1,48.9,67,29.95,10.0,Calm,Calm,-,N/A,,Clear,0,2013-09-06 11:53:00
6:53 AM,62.1,50.0,65,29.96,8.0,SSE,4.6,-,N/A,,Clear,160,2013-09-06 12:53:00
7:53 AM,73.0,48.0,41,29.95,10.0,SSW,5.8,-,N/A,,Clear,210,2013-09-06 13:53:00
8:53 AM,80.1,48.0,32,29.95,10.0,SW,6.9,-,N/A,,Clear,230,2013-09-06 14:53:00
9:53 AM,87.1,50.0,28,29.95,10.0,NW,4.6,-,N/A,,Clear,310,2013-09-06 15:53:00
10:53 AM,93.9,48.9,21,29.93,10.0,Calm,Calm,-,N/A,,Clear,0,2013-09-06 16:53:00
11:53 AM,99.0,46.9,17,29.91,10.0,South,9.2,-,N/A,,Clear,170,2013-09-06 17:53:00
12:53 PM,102.0,45.0,14,29.88,10.0,SSW,9.2,19.6,N/A,,Clear,200,2013-09-06 18:53:00
1:53 PM,105.1,42.1,12,29.86,10.0,SW,6.9,18.4,N/A,,Clear,230,2013-09-06 19:53:00
2:53 PM,105.1,41.0,11,29.84,10.0,South,12.7,-,N/A,,Clear,170,2013-09-06 20:53:00
3:53 PM,104.0,42.1,12,29.83,10.0,South,10.4,-,N/A,,Clear,180,2013-09-06 21:53:00
4:53 PM,102.0,43.0,13,29.83,10.0,South,10.4,16.1,N/A,,Clear,190,2013-09-06 22:53:00
5:53 PM,100.0,44.1,15,29.83,10.0,South,12.7,17.3,N/A,,Clear,180,2013-09-06 23:53:00
6:53 PM,93.0,46.0,20,29.84,10.0,South,9.2,-,N/A,,Clear,170,2013-09-07 00:53:00
7:53 PM,86.0,46.9,26,29.84,10.0,South,8.1,-,N/A,,Clear,180,2013-09-07 01:53:00
8:53 PM,84.9,45.0,25,29.85,10.0,South,10.4,-,N/A,,Clear,180,2013-09-07 02:53:00
9:53 PM,82.9,43.0,24,29.85,10.0,SSW,13.8,-,N/A,,Clear,200,2013-09-07 03:53:00
10:53 PM,80.1,44.1,28,29.86,10.0,SSW,12.7,-,N/A,,Clear,200,2013-09-07 04:53:00
11:53 PM,73.9,46.9,38,29.88,10.0,Variable,3.5,-,N/A,,Clear,0,2013-09-07 05:53:00